sensor_id;sensor_type;location;lat;lon;timestamp;pressure;altitude;pressure_sealevel;temperature;humidity
8543;BME280;4309;42.658;23.380;2023-02-20T00:00:17;95032.97;;;11.30;56.16
8543;BME280;4309;42.658;23.380;2023-02-20T00:00:51;95035.16;;;11.33;56.08
8543;BME280;4309;42.658;23.380;2023-02-20T00:01:23;95031.19;;;11.30;55.79
8543;BME280;4309;42.658;23.380;2023-02-20T00:01:56;95025.13;;;11.30;56.29
8543;BME280;4309;42.658;23.380;2023-02-20T00:02:29;95031.34;;;11.35;56.07
8543;BME280;4309;42.658;23.380;2023-02-20T00:03:03;95038.22;;;11.30;55.86
8543;BME280;4309;42.658;23.380;2023-02-20T00:03:35;95028.56;;;11.30;56.44
8543;BME280;4309;42.658;23.380;2023-02-20T00:04:08;95032.94;;;11.36;55.86
8543;BME280;4309;42.658;23.380;2023-02-20T00:04:40;95033.78;;;11.30;56.07
8543;BME280;4309;42.658;23.380;2023-02-20T00:05:14;95035.38;;;11.31;55.85
8543;BME280;4309;42.658;23.380;2023-02-20T00:05:47;95032.56;;;11.33;56.13
8543;BME280;4309;42.658;23.380;2023-02-20T00:06:19;95036.41;;;11.30;56.08
8543;BME280;4309;42.658;23.380;2023-02-20T00:06:53;95038.22;;;11.30;56.54
8543;BME280;4309;42.658;23.380;2023-02-20T00:07:25;95043.41;;;11.36;56.23
8543;BME280;4309;42.658;23.380;2023-02-20T00:07:57;95035.34;;;11.38;56.14
8543;BME280;4309;42.658;23.380;2023-02-20T00:08:30;95032.00;;;11.31;56.45
8543;BME280;4309;42.658;23.380;2023-02-20T00:09:03;95039.63;;;11.32;56.71
8543;BME280;4309;42.658;23.380;2023-02-20T00:09:34;95035.03;;;11.28;56.74
8543;BME280;4309;42.658;23.380;2023-02-20T00:10:08;95039.84;;;11.31;56.56
8543;BME280;4309;42.658;23.380;2023-02-20T00:10:40;95034.75;;;11.36;56.55
8543;BME280;4309;42.658;23.380;2023-02-20T00:11:11;95032.22;;;11.29;56.76
8543;BME280;4309;42.658;23.380;2023-02-20T00:11:44;95040.78;;;11.36;56.39
8543;BME280;4309;42.658;23.380;2023-02-20T00:12:18;95030.75;;;11.33;56.78
8543;BME280;4309;42.658;23.380;2023-02-20T00:12:49;95035.38;;;11.31;56.74
8543;BME280;4309;42.658;23.380;2023-02-20T00:13:22;95035.47;;;11.25;57.13
8543;BME280;4309;42.658;23.380;2023-02-20T00:13:54;95029.25;;;11.19;56.83
8543;BME280;4309;42.658;23.380;2023-02-20T00:14:26;95044.16;;;11.19;56.71
8543;BME280;4309;42.658;23.380;2023-02-20T00:15:00;95039.13;;;11.17;57.20
8543;BME280;4309;42.658;23.380;2023-02-20T00:15:32;95036.72;;;11.16;57.45
8543;BME280;4309;42.658;23.380;2023-02-20T00:16:05;95040.97;;;11.17;57.46
8543;BME280;4309;42.658;23.380;2023-02-20T00:16:39;95037.22;;;11.06;57.51
8543;BME280;4309;42.658;23.380;2023-02-20T00:17:11;95041.28;;;11.02;57.92
8543;BME280;4309;42.658;23.380;2023-02-20T00:17:42;95039.19;;;11.11;57.64
8543;BME280;4309;42.658;23.380;2023-02-20T00:18:18;95039.19;;;11.11;57.44
8543;BME280;4309;42.658;23.380;2023-02-20T00:18:50;95043.63;;;11.10;57.91
8543;BME280;4309;42.658;23.380;2023-02-20T00:19:22;95041.25;;;11.09;58.21
8543;BME280;4309;42.658;23.380;2023-02-20T00:19:55;95045.44;;;11.10;57.90
8543;BME280;4309;42.658;23.380;2023-02-20T00:20:29;95042.22;;;11.08;57.88
8543;BME280;4309;42.658;23.380;2023-02-20T00:21:04;95045.03;;;11.13;58.07
8543;BME280;4309;42.658;23.380;2023-02-20T00:21:37;95041.81;;;11.11;57.77
8543;BME280;4309;42.658;23.380;2023-02-20T00:22:15;95037.00;;;11.08;58.02
8543;BME280;4309;42.658;23.380;2023-02-20T00:22:47;95039.75;;;10.94;58.14
8543;BME280;4309;42.658;23.380;2023-02-20T00:23:21;95040.03;;;11.05;58.19
8543;BME280;4309;42.658;23.380;2023-02-20T00:23:53;95048.91;;;11.04;57.85
8543;BME280;4309;42.658;23.380;2023-02-20T00:24:25;95049.72;;;11.04;58.04
8543;BME280;4309;42.658;23.380;2023-02-20T00:24:58;95035.25;;;11.02;57.75
8543;BME280;4309;42.658;23.380;2023-02-20T00:25:29;95030.00;;;11.02;57.98
8543;BME280;4309;42.658;23.380;2023-02-20T00:26:01;95047.34;;;11.03;58.31
8543;BME280;4309;42.658;23.380;2023-02-20T00:26:34;95041.50;;;11.01;58.36
8543;BME280;4309;42.658;23.380;2023-02-20T00:27:06;95042.03;;;10.84;58.46
8543;BME280;4309;42.658;23.380;2023-02-20T00:27:38;95044.63;;;10.84;58.54
8543;BME280;4309;42.658;23.380;2023-02-20T00:28:11;95035.19;;;10.83;58.47
8543;BME280;4309;42.658;23.380;2023-02-20T00:28:44;95043.00;;;10.90;58.92
8543;BME280;4309;42.658;23.380;2023-02-20T00:29:17;95051.38;;;10.98;58.23
8543;BME280;4309;42.658;23.380;2023-02-20T00:29:51;95043.53;;;10.98;58.42
8543;BME280;4309;42.658;23.380;2023-02-20T00:30:23;95046.53;;;11.02;58.58
8543;BME280;4309;42.658;23.380;2023-02-20T00:30:55;95044.72;;;11.03;58.82
8543;BME280;4309;42.658;23.380;2023-02-20T00:31:28;95051.59;;;10.97;58.16
8543;BME280;4309;42.658;23.380;2023-02-20T00:32:00;95045.50;;;11.03;58.31
8543;BME280;4309;42.658;23.380;2023-02-20T00:32:33;95045.94;;;11.00;58.28
8543;BME280;4309;42.658;23.380;2023-02-20T00:33:06;95047.59;;;10.94;58.63
8543;BME280;4309;42.658;23.380;2023-02-20T00:33:38;95042.88;;;11.03;58.61
8543;BME280;4309;42.658;23.380;2023-02-20T00:34:09;95042.88;;;11.03;58.69
8543;BME280;4309;42.658;23.380;2023-02-20T00:34:42;95038.25;;;11.05;58.61
8543;BME280;4309;42.658;23.380;2023-02-20T00:35:14;95035.63;;;11.05;58.20
8543;BME280;4309;42.658;23.380;2023-02-20T00:35:46;95035.78;;;11.10;58.02
8543;BME280;4309;42.658;23.380;2023-02-20T00:36:22;95040.66;;;11.07;58.46
8543;BME280;4309;42.658;23.380;2023-02-20T00:36:54;95033.00;;;11.05;58.35
8543;BME280;4309;42.658;23.380;2023-02-20T00:37:26;95034.38;;;11.08;58.37
8543;BME280;4309;42.658;23.380;2023-02-20T00:37:59;95036.91;;;10.96;58.57
8543;BME280;4309;42.658;23.380;2023-02-20T00:38:30;95032.94;;;10.87;59.11
8543;BME280;4309;42.658;23.380;2023-02-20T00:39:02;95032.94;;;10.87;58.82
8543;BME280;4309;42.658;23.380;2023-02-20T00:39:35;95043.63;;;10.85;59.40
8543;BME280;4309;42.658;23.380;2023-02-20T00:40:07;95042.19;;;10.89;59.08
8543;BME280;4309;42.658;23.380;2023-02-20T00:40:40;95033.75;;;10.87;59.33
8543;BME280;4309;42.658;23.380;2023-02-20T00:41:13;95041.41;;;10.82;59.52
8543;BME280;4309;42.658;23.380;2023-02-20T00:41:45;95036.34;;;10.87;59.16
8543;BME280;4309;42.658;23.380;2023-02-20T00:42:19;95044.00;;;10.89;59.56
8543;BME280;4309;42.658;23.380;2023-02-20T00:42:51;95031.94;;;10.88;59.32
8543;BME280;4309;42.658;23.380;2023-02-20T00:43:22;95034.38;;;10.83;59.35
8543;BME280;4309;42.658;23.380;2023-02-20T00:43:59;95028.34;;;10.82;59.30
8543;BME280;4309;42.658;23.380;2023-02-20T00:44:31;95023.91;;;10.83;59.89
8543;BME280;4309;42.658;23.380;2023-02-20T00:45:05;95029.53;;;10.86;59.83
8543;BME280;4309;42.658;23.380;2023-02-20T00:45:36;95032.16;;;10.86;59.85
8543;BME280;4309;42.658;23.380;2023-02-20T00:46:10;95022.69;;;10.85;59.71
8543;BME280;4309;42.658;23.380;2023-02-20T00:46:46;95019.72;;;10.82;59.52
8543;BME280;4309;42.658;23.380;2023-02-20T00:47:18;95024.38;;;10.73;59.78
8543;BME280;4309;42.658;23.380;2023-02-20T00:47:50;95023.47;;;10.61;60.30
8543;BME280;4309;42.658;23.380;2023-02-20T00:48:22;95030.47;;;10.67;60.51
8543;BME280;4309;42.658;23.380;2023-02-20T00:48:53;95030.66;;;10.72;60.29
8543;BME280;4309;42.658;23.380;2023-02-20T00:49:25;95039.69;;;10.70;60.18
8543;BME280;4309;42.658;23.380;2023-02-20T00:49:58;95031.44;;;10.73;60.11
8543;BME280;4309;42.658;23.380;2023-02-20T00:50:30;95037.44;;;10.80;60.34
8543;BME280;4309;42.658;23.380;2023-02-20T00:51:04;95035.72;;;10.67;60.51
8543;BME280;4309;42.658;23.380;2023-02-20T00:51:37;95038.91;;;10.69;60.12
8543;BME280;4309;42.658;23.380;2023-02-20T00:52:09;95034.44;;;10.76;60.19
8543;BME280;4309;42.658;23.380;2023-02-20T00:52:41;95035.66;;;10.74;60.03
8543;BME280;4309;42.658;23.380;2023-02-20T00:53:13;95027.81;;;10.74;59.90
8543;BME280;4309;42.658;23.380;2023-02-20T00:53:46;95023.53;;;10.79;60.15
8543;BME280;4309;42.658;23.380;2023-02-20T00:54:18;95019.97;;;10.74;59.93
8543;BME280;4309;42.658;23.380;2023-02-20T00:54:49;95026.38;;;10.78;60.24
8543;BME280;4309;42.658;23.380;2023-02-20T00:55:22;95033.69;;;10.69;60.38
8543;BME280;4309;42.658;23.380;2023-02-20T00:55:54;95042.69;;;10.73;60.24
8543;BME280;4309;42.658;23.380;2023-02-20T00:56:26;95042.50;;;10.75;60.39
8543;BME280;4309;42.658;23.380;2023-02-20T00:56:59;95046.50;;;10.77;59.82
8543;BME280;4309;42.658;23.380;2023-02-20T00:57:31;95042.69;;;10.73;59.92
8543;BME280;4309;42.658;23.380;2023-02-20T00:58:03;95041.75;;;10.68;60.24
8543;BME280;4309;42.658;23.380;2023-02-20T00:58:36;95031.63;;;10.71;60.54
8543;BME280;4309;42.658;23.380;2023-02-20T00:59:08;95040.72;;;10.69;60.47
8543;BME280;4309;42.658;23.380;2023-02-20T00:59:40;95037.16;;;10.63;60.57
8543;BME280;4309;42.658;23.380;2023-02-20T01:00:18;95037.94;;;10.64;60.46
8543;BME280;4309;42.658;23.380;2023-02-20T01:00:51;95042.09;;;10.71;60.38
8543;BME280;4309;42.658;23.380;2023-02-20T01:01:24;95045.13;;;10.68;60.75
8543;BME280;4309;42.658;23.380;2023-02-20T01:01:57;95047.34;;;10.71;60.43
8543;BME280;4309;42.658;23.380;2023-02-20T01:02:29;95045.75;;;10.70;60.23
8543;BME280;4309;42.658;23.380;2023-02-20T01:03:04;95041.97;;;10.66;60.72
8543;BME280;4309;42.658;23.380;2023-02-20T01:03:35;95048.16;;;10.72;60.01
8543;BME280;4309;42.658;23.380;2023-02-20T01:04:11;95051.16;;;10.75;60.38
8543;BME280;4309;42.658;23.380;2023-02-20T01:04:43;95049.72;;;10.73;60.19
8543;BME280;4309;42.658;23.380;2023-02-20T01:05:15;95051.34;;;10.74;60.23
8543;BME280;4309;42.658;23.380;2023-02-20T01:05:48;95050.75;;;10.72;60.30
8543;BME280;4309;42.658;23.380;2023-02-20T01:06:22;95052.78;;;10.70;60.25
8543;BME280;4309;42.658;23.380;2023-02-20T01:06:54;95046.56;;;10.71;60.44
8543;BME280;4309;42.658;23.380;2023-02-20T01:07:26;95051.19;;;10.69;60.50
8543;BME280;4309;42.658;23.380;2023-02-20T01:07:59;95058.59;;;10.72;60.38
8543;BME280;4309;42.658;23.380;2023-02-20T01:08:31;95055.81;;;10.67;60.33
8543;BME280;4309;42.658;23.380;2023-02-20T01:09:06;95064.72;;;10.59;60.62
8543;BME280;4309;42.658;23.380;2023-02-20T01:09:39;95066.91;;;10.62;60.65
8543;BME280;4309;42.658;23.380;2023-02-20T01:10:12;95066.19;;;10.49;60.88
8543;BME280;4309;42.658;23.380;2023-02-20T01:10:44;95085.69;;;10.46;61.03
8543;BME280;4309;42.658;23.380;2023-02-20T01:11:17;95073.03;;;10.43;61.27
8543;BME280;4309;42.658;23.380;2023-02-20T01:11:49;95082.88;;;10.48;61.24
8543;BME280;4309;42.658;23.380;2023-02-20T01:12:21;95077.81;;;10.53;61.32
8543;BME280;4309;42.658;23.380;2023-02-20T01:12:55;95077.44;;;10.49;60.85
8543;BME280;4309;42.658;23.380;2023-02-20T01:13:27;95074.03;;;10.49;61.40
8543;BME280;4309;42.658;23.380;2023-02-20T01:13:59;95086.47;;;10.53;61.30
8543;BME280;4309;42.658;23.380;2023-02-20T01:14:32;95081.88;;;10.49;61.46
8543;BME280;4309;42.658;23.380;2023-02-20T01:15:06;95080.03;;;10.49;60.99
8543;BME280;4309;42.658;23.380;2023-02-20T01:15:38;95085.25;;;10.56;61.28
8543;BME280;4309;42.658;23.380;2023-02-20T01:16:11;95084.88;;;10.52;61.17
8543;BME280;4309;42.658;23.380;2023-02-20T01:16:49;95085.34;;;10.43;61.29
8543;BME280;4309;42.658;23.380;2023-02-20T01:17:21;95080.72;;;10.38;61.67
8543;BME280;4309;42.658;23.380;2023-02-20T01:17:54;95084.53;;;10.42;61.65
8543;BME280;4309;42.658;23.380;2023-02-20T01:18:27;95076.91;;;10.41;61.91
8543;BME280;4309;42.658;23.380;2023-02-20T01:18:59;95095.38;;;10.46;61.95
8543;BME280;4309;42.658;23.380;2023-02-20T01:19:34;95089.75;;;10.42;62.08
8543;BME280;4309;42.658;23.380;2023-02-20T01:20:07;95087.53;;;10.46;61.84
8543;BME280;4309;42.658;23.380;2023-02-20T01:20:39;95088.53;;;10.45;61.62
8543;BME280;4309;42.658;23.380;2023-02-20T01:21:12;95093.31;;;10.48;61.48
8543;BME280;4309;42.658;23.380;2023-02-20T01:21:46;95092.75;;;10.46;61.81
8543;BME280;4309;42.658;23.380;2023-02-20T01:22:19;95093.13;;;10.49;61.72
8543;BME280;4309;42.658;23.380;2023-02-20T01:22:52;95097.38;;;10.44;61.85
8543;BME280;4309;42.658;23.380;2023-02-20T01:23:24;95096.75;;;10.48;61.57
8543;BME280;4309;42.658;23.380;2023-02-20T01:23:56;95093.38;;;10.41;61.80
8543;BME280;4309;42.658;23.380;2023-02-20T01:24:29;95096.38;;;10.45;61.83
8543;BME280;4309;42.658;23.380;2023-02-20T01:25:01;95091.75;;;10.40;61.76
8543;BME280;4309;42.658;23.380;2023-02-20T01:25:36;95095.19;;;10.41;61.79
8543;BME280;4309;42.658;23.380;2023-02-20T01:26:10;95098.00;;;10.39;62.00
8543;BME280;4309;42.658;23.380;2023-02-20T01:26:43;95098.44;;;10.36;62.06
8543;BME280;4309;42.658;23.380;2023-02-20T01:27:16;95098.44;;;10.36;62.12
8543;BME280;4309;42.658;23.380;2023-02-20T01:27:48;95099.41;;;10.35;62.01
8543;BME280;4309;42.658;23.380;2023-02-20T01:28:21;95100.22;;;10.36;62.17
8543;BME280;4309;42.658;23.380;2023-02-20T01:28:53;95104.63;;;10.42;61.95
8543;BME280;4309;42.658;23.380;2023-02-20T01:29:25;95104.22;;;10.38;62.06
8543;BME280;4309;42.658;23.380;2023-02-20T01:30:01;95107.25;;;10.35;62.12
8543;BME280;4309;42.658;23.380;2023-02-20T01:30:33;95103.06;;;10.34;62.42
8543;BME280;4309;42.658;23.380;2023-02-20T01:31:06;95106.69;;;10.33;62.16
8543;BME280;4309;42.658;23.380;2023-02-20T01:31:39;95088.84;;;10.17;62.43
8543;BME280;4309;42.658;23.380;2023-02-20T01:32:12;95114.53;;;10.33;62.41
8543;BME280;4309;42.658;23.380;2023-02-20T01:32:44;95105.28;;;10.31;62.46
8543;BME280;4309;42.658;23.380;2023-02-20T01:33:16;95091.66;;;10.22;62.58
8543;BME280;4309;42.658;23.380;2023-02-20T01:33:49;95107.88;;;10.37;62.31
8543;BME280;4309;42.658;23.380;2023-02-20T01:34:21;95102.66;;;10.31;62.42
8543;BME280;4309;42.658;23.380;2023-02-20T01:34:53;95108.06;;;10.36;62.65
8543;BME280;4309;42.658;23.380;2023-02-20T01:35:26;95097.00;;;10.34;62.37
8543;BME280;4309;42.658;23.380;2023-02-20T01:36:01;95097.63;;;10.36;62.31
8543;BME280;4309;42.658;23.380;2023-02-20T01:36:33;95101.47;;;10.33;62.19
8543;BME280;4309;42.658;23.380;2023-02-20T01:37:11;95101.03;;;10.43;62.32
8543;BME280;4309;42.658;23.380;2023-02-20T01:37:44;95098.41;;;10.43;61.97
8543;BME280;4309;42.658;23.380;2023-02-20T01:38:16;95104.38;;;10.50;61.84
8543;BME280;4309;42.658;23.380;2023-02-20T01:38:48;95094.94;;;10.49;62.16
8543;BME280;4309;42.658;23.380;2023-02-20T01:39:23;95104.81;;;10.47;61.81
8543;BME280;4309;42.658;23.380;2023-02-20T01:39:56;95101.97;;;10.48;62.00
8543;BME280;4309;42.658;23.380;2023-02-20T01:40:29;95097.38;;;10.44;62.13
8543;BME280;4309;42.658;23.380;2023-02-20T01:41:01;95105.03;;;10.45;62.43
8543;BME280;4309;42.658;23.380;2023-02-20T01:41:33;95097.56;;;10.49;62.24
8543;BME280;4309;42.658;23.380;2023-02-20T01:42:06;95097.38;;;10.44;62.27
8543;BME280;4309;42.658;23.380;2023-02-20T01:42:42;95100.81;;;10.44;62.16
8543;BME280;4309;42.658;23.380;2023-02-20T01:43:15;95093.19;;;10.43;62.48
8543;BME280;4309;42.658;23.380;2023-02-20T01:43:47;95103.63;;;10.43;62.31
8543;BME280;4309;42.658;23.380;2023-02-20T01:44:22;95094.78;;;10.44;62.59
8543;BME280;4309;42.658;23.380;2023-02-20T01:45:10;95097.78;;;10.47;62.46
8543;BME280;4309;42.658;23.380;2023-02-20T01:45:45;95097.59;;;10.42;62.28
8543;BME280;4309;42.658;23.380;2023-02-20T01:46:42;95094.56;;;10.45;62.36
8543;BME280;4309;42.658;23.380;2023-02-20T01:47:16;95103.22;;;10.46;62.40
8543;BME280;4309;42.658;23.380;2023-02-20T01:47:51;95097.78;;;10.47;62.19
8543;BME280;4309;42.658;23.380;2023-02-20T01:48:23;95105.41;;;10.49;62.49
8543;BME280;4309;42.658;23.380;2023-02-20T01:48:59;95101.38;;;10.46;62.68
8543;BME280;4309;42.658;23.380;2023-02-20T01:49:36;95101.97;;;10.48;62.49
8543;BME280;4309;42.658;23.380;2023-02-20T01:50:10;95106.41;;;10.48;62.64
8543;BME280;4309;42.658;23.380;2023-02-20T01:50:43;95110.84;;;10.47;62.53
8543;BME280;4309;42.658;23.380;2023-02-20T01:51:16;95116.06;;;10.47;62.70
8543;BME280;4309;42.658;23.380;2023-02-20T01:52:02;95116.44;;;10.51;62.82
8543;BME280;4309;42.658;23.380;2023-02-20T01:52:38;95108.03;;;10.49;62.65
8543;BME280;4309;42.658;23.380;2023-02-20T01:53:14;95110.00;;;10.53;63.01
8543;BME280;4309;42.658;23.380;2023-02-20T01:53:46;95110.59;;;10.55;62.67
8543;BME280;4309;42.658;23.380;2023-02-20T01:54:21;95103.75;;;10.54;62.70
8543;BME280;4309;42.658;23.380;2023-02-20T01:54:58;95102.78;;;10.55;62.67
8543;BME280;4309;42.658;23.380;2023-02-20T01:55:36;95101.94;;;10.55;62.99
8543;BME280;4309;42.658;23.380;2023-02-20T01:56:10;95095.91;;;10.54;62.85
8543;BME280;4309;42.658;23.380;2023-02-20T01:56:43;95101.16;;;10.54;63.17
8543;BME280;4309;42.658;23.380;2023-02-20T01:57:18;95105.94;;;10.57;63.04
8543;BME280;4309;42.658;23.380;2023-02-20T01:57:54;95089.50;;;10.50;63.33
8543;BME280;4309;42.658;23.380;2023-02-20T01:58:30;95101.97;;;10.48;63.35
8543;BME280;4309;42.658;23.380;2023-02-20T01:59:05;95107.59;;;10.52;63.46
8543;BME280;4309;42.658;23.380;2023-02-20T01:59:38;95093.91;;;10.56;63.35
8543;BME280;4309;42.658;23.380;2023-02-20T02:00:15;95096.50;;;10.56;63.43
8543;BME280;4309;42.658;23.380;2023-02-20T02:00:47;95100.38;;;10.54;63.32
8543;BME280;4309;42.658;23.380;2023-02-20T02:01:19;95108.34;;;10.59;63.50
8543;BME280;4309;42.658;23.380;2023-02-20T02:01:52;95109.59;;;10.56;63.21
8543;BME280;4309;42.658;23.380;2023-02-20T02:02:23;95104.56;;;10.55;63.33
8543;BME280;4309;42.658;23.380;2023-02-20T02:02:58;95100.72;;;10.57;63.11
8543;BME280;4309;42.658;23.380;2023-02-20T02:03:38;95096.94;;;10.53;63.41
8543;BME280;4309;42.658;23.380;2023-02-20T02:04:12;95103.00;;;10.47;63.59
8543;BME280;4309;42.658;23.380;2023-02-20T02:04:45;95103.97;;;10.53;63.20
8543;BME280;4309;42.658;23.380;2023-02-20T02:05:18;95108.78;;;10.56;63.09
8543;BME280;4309;42.658;23.380;2023-02-20T02:05:53;95109.16;;;10.59;63.12
8543;BME280;4309;42.658;23.380;2023-02-20T02:06:29;95113.22;;;10.55;63.36
8543;BME280;4309;42.658;23.380;2023-02-20T02:07:02;95118.25;;;10.57;63.57
8543;BME280;4309;42.658;23.380;2023-02-20T02:07:35;95112.41;;;10.55;63.42
8543;BME280;4309;42.658;23.380;2023-02-20T02:08:10;95124.66;;;10.54;63.12
8543;BME280;4309;42.658;23.380;2023-02-20T02:08:44;95113.25;;;10.49;63.60
8543;BME280;4309;42.658;23.380;2023-02-20T02:09:22;95117.91;;;10.40;63.67
8543;BME280;4309;42.658;23.380;2023-02-20T02:09:59;95118.50;;;10.42;64.12
8543;BME280;4309;42.658;23.380;2023-02-20T02:10:36;95115.72;;;10.37;63.82
8543;BME280;4309;42.658;23.380;2023-02-20T02:11:12;95119.91;;;10.38;63.99
8543;BME280;4309;42.658;23.380;2023-02-20T02:11:48;95126.16;;;10.37;63.75
8543;BME280;4309;42.658;23.380;2023-02-20T02:12:20;95112.06;;;10.38;63.95
8543;BME280;4309;42.658;23.380;2023-02-20T02:12:54;95110.91;;;10.34;63.91
8543;BME280;4309;42.658;23.380;2023-02-20T02:13:26;95105.91;;;10.26;64.23
8543;BME280;4309;42.658;23.380;2023-02-20T02:13:58;95107.88;;;10.31;64.27
8543;BME280;4309;42.658;23.380;2023-02-20T02:14:31;95097.00;;;10.34;64.19
8543;BME280;4309;42.658;23.380;2023-02-20T02:15:11;95105.47;;;10.36;64.13
8543;BME280;4309;42.658;23.380;2023-02-20T02:15:43;95104.44;;;10.37;64.39
8543;BME280;4309;42.658;23.380;2023-02-20T02:16:23;95109.84;;;10.42;63.87
8543;BME280;4309;42.658;23.380;2023-02-20T02:17:29;95104.06;;;10.40;64.03
8543;BME280;4309;42.658;23.380;2023-02-20T02:18:28;95117.91;;;10.40;63.91
8543;BME280;4309;42.658;23.380;2023-02-20T02:19:47;95115.16;;;10.29;64.39
8543;BME280;4309;42.658;23.380;2023-02-20T02:22:22;95116.81;;;10.04;64.79
8543;BME280;4309;42.658;23.380;2023-02-20T02:25:41;95121.03;;;9.98;64.48
8543;BME280;4309;42.658;23.380;2023-02-20T02:29:24;95133.09;;;9.99;63.99
8543;BME280;4309;42.658;23.380;2023-02-20T02:30:52;95131.28;;;9.93;63.82
8543;BME280;4309;42.658;23.380;2023-02-20T02:32:59;95143.56;;;9.93;63.75
8543;BME280;4309;42.658;23.380;2023-02-20T02:34:02;95135.34;;;9.89;63.64
8543;BME280;4309;42.658;23.380;2023-02-20T02:35:07;95133.72;;;9.88;63.16
8543;BME280;4309;42.658;23.380;2023-02-20T02:36:24;95139.34;;;9.79;63.30
8543;BME280;4309;42.658;23.380;2023-02-20T02:37:02;95147.59;;;9.82;63.62
8543;BME280;4309;42.658;23.380;2023-02-20T02:37:42;95132.34;;;9.73;63.46
8543;BME280;4309;42.658;23.380;2023-02-20T02:38:24;95140.78;;;9.75;63.50
8543;BME280;4309;42.658;23.380;2023-02-20T02:39:03;95144.97;;;9.76;63.54
8543;BME280;4309;42.658;23.380;2023-02-20T02:39:44;95134.75;;;9.74;63.68
8543;BME280;4309;42.658;23.380;2023-02-20T02:40:23;95142.00;;;9.72;63.78
8543;BME280;4309;42.658;23.380;2023-02-20T02:41:05;95133.97;;;9.67;63.67
8543;BME280;4309;42.658;23.380;2023-02-20T02:41:45;95132.53;;;9.71;63.83
8543;BME280;4309;42.658;23.380;2023-02-20T02:42:25;95125.31;;;9.67;63.84
8543;BME280;4309;42.658;23.380;2023-02-20T02:43:08;95132.75;;;9.63;63.95
8543;BME280;4309;42.658;23.380;2023-02-20T02:43:48;95123.53;;;9.61;63.60
8543;BME280;4309;42.658;23.380;2023-02-20T02:44:25;95129.34;;;9.63;63.78
8543;BME280;4309;42.658;23.380;2023-02-20T02:45:04;95125.13;;;9.62;63.71
8543;BME280;4309;42.658;23.380;2023-02-20T02:45:45;95130.75;;;9.65;63.83
8543;BME280;4309;42.658;23.380;2023-02-20T02:46:26;95125.53;;;9.59;63.30
8543;BME280;4309;42.658;23.380;2023-02-20T02:47:04;95135.41;;;9.57;63.93
8543;BME280;4309;42.658;23.380;2023-02-20T02:47:42;95139.59;;;9.58;63.69
8543;BME280;4309;42.658;23.380;2023-02-20T02:48:18;95143.03;;;9.58;63.78
8543;BME280;4309;42.658;23.380;2023-02-20T02:48:57;95146.22;;;9.60;63.78
8543;BME280;4309;42.658;23.380;2023-02-20T02:49:35;95146.22;;;9.54;63.78
8543;BME280;4309;42.658;23.380;2023-02-20T02:50:13;95142.81;;;9.60;63.87
8543;BME280;4309;42.658;23.380;2023-02-20T02:50:48;95139.59;;;9.51;63.67
8543;BME280;4309;42.658;23.380;2023-02-20T02:51:27;95145.22;;;9.48;63.81
8543;BME280;4309;42.658;23.380;2023-02-20T02:52:01;95142.63;;;9.48;64.42
8543;BME280;4309;42.658;23.380;2023-02-20T02:52:35;95149.22;;;9.51;63.66
8543;BME280;4309;42.658;23.380;2023-02-20T02:53:19;95135.97;;;9.52;64.03
8543;BME280;4309;42.658;23.380;2023-02-20T02:54:08;95138.19;;;9.42;64.32
8543;BME280;4309;42.658;23.380;2023-02-20T02:54:42;95140.59;;;9.43;64.14
8543;BME280;4309;42.658;23.380;2023-02-20T02:55:15;95144.41;;;9.41;64.21
8543;BME280;4309;42.658;23.380;2023-02-20T02:55:49;95148.44;;;9.37;64.66
8543;BME280;4309;42.658;23.380;2023-02-20T02:56:21;95144.22;;;9.36;64.54
8543;BME280;4309;42.658;23.380;2023-02-20T02:57:14;95141.81;;;9.34;64.75
8543;BME280;4309;42.658;23.380;2023-02-20T02:57:47;95135.59;;;9.29;64.71
8543;BME280;4309;42.658;23.380;2023-02-20T02:58:19;95147.63;;;9.30;64.76
8543;BME280;4309;42.658;23.380;2023-02-20T02:58:53;95153.03;;;9.35;64.77
8543;BME280;4309;42.658;23.380;2023-02-20T02:59:29;95142.59;;;9.35;64.77
8543;BME280;4309;42.658;23.380;2023-02-20T03:00:05;95154.66;;;9.36;64.84
8543;BME280;4309;42.658;23.380;2023-02-20T03:00:42;95154.88;;;9.34;64.72
8543;BME280;4309;42.658;23.380;2023-02-20T03:01:15;95164.28;;;9.35;64.19
8543;BME280;4309;42.658;23.380;2023-02-20T03:01:52;95157.06;;;9.37;65.04
8543;BME280;4309;42.658;23.380;2023-02-20T03:02:33;95155.66;;;9.41;64.83
8543;BME280;4309;42.658;23.380;2023-02-20T03:03:10;95168.09;;;9.46;64.57
8543;BME280;4309;42.658;23.380;2023-02-20T03:03:47;95159.66;;;9.51;64.48
8543;BME280;4309;42.658;23.380;2023-02-20T03:04:21;95158.88;;;9.43;64.52
8543;BME280;4309;42.658;23.380;2023-02-20T03:04:56;95166.50;;;9.38;64.48
8543;BME280;4309;42.658;23.380;2023-02-20T03:05:37;95181.34;;;9.44;64.60
8543;BME280;4309;42.658;23.380;2023-02-20T03:06:13;95162.31;;;9.44;64.33
8543;BME280;4309;42.658;23.380;2023-02-20T03:06:51;95172.34;;;9.40;64.57
8543;BME280;4309;42.658;23.380;2023-02-20T03:07:24;95178.94;;;9.36;64.58
8543;BME280;4309;42.658;23.380;2023-02-20T03:07:57;95158.88;;;9.43;64.32
8543;BME280;4309;42.658;23.380;2023-02-20T03:08:33;95172.13;;;9.35;64.50
8543;BME280;4309;42.658;23.380;2023-02-20T03:09:13;95169.31;;;9.37;65.00
8543;BME280;4309;42.658;23.380;2023-02-20T03:09:49;95181.75;;;9.35;64.44
8543;BME280;4309;42.658;23.380;2023-02-20T03:10:23;95184.97;;;9.37;64.59
8543;BME280;4309;42.658;23.380;2023-02-20T03:11:04;95173.72;;;9.30;65.03
8543;BME280;4309;42.658;23.380;2023-02-20T03:11:38;95176.94;;;9.32;64.83
8543;BME280;4309;42.658;23.380;2023-02-20T03:12:12;95176.31;;;9.36;64.64
8543;BME280;4309;42.658;23.380;2023-02-20T03:12:49;95183.56;;;9.34;64.89
8543;BME280;4309;42.658;23.380;2023-02-20T03:13:22;95162.50;;;9.29;65.18
8543;BME280;4309;42.658;23.380;2023-02-20T03:14:17;95160.47;;;9.18;64.86
8543;BME280;4309;42.658;23.380;2023-02-20T03:15:12;95171.91;;;9.24;65.36
8543;BME280;4309;42.658;23.380;2023-02-20T03:16:05;95162.28;;;9.31;64.85
8543;BME280;4309;42.658;23.380;2023-02-20T03:16:44;95169.91;;;9.26;65.51
8543;BME280;4309;42.658;23.380;2023-02-20T03:17:25;95168.31;;;9.25;64.99
8543;BME280;4309;42.658;23.380;2023-02-20T03:18:10;95164.69;;;9.19;65.25
8543;BME280;4309;42.658;23.380;2023-02-20T03:18:48;95159.66;;;9.11;65.51
8543;BME280;4309;42.658;23.380;2023-02-20T03:19:27;95157.63;;;9.00;65.57